Time;durP1;ratioP1;P1;durP2;ratioP2;P2;SDS_P1;SDS_P2;PMS_P1;PMS_P2;Temp;Humidity;BMP_temperature;BMP_pressure;BME280_temperature;BME280_humidity;BME280_pressure;Samples;Min_cycle;Max_cycle;Signal;HPM_P1;HPM_P2
2022/10/01 00:01:58;;;;;;;6.18;1.65;;;17.20;88.90;;;;;;5048395;28;20638;-59
2022/10/01 00:04:27;;;;;;;15.18;1.77;;;17.30;89.40;;;;;;5044296;28;20186;-59
2022/10/01 00:06:54;;;;;;;5.70;1.10;;;17.30;89.70;;;;;;5048097;28;20024;-59
2022/10/01 00:09:21;;;;;;;6.30;1.38;;;17.40;85.10;;;;;;5049090;28;20517;-58
2022/10/01 00:11:48;;;;;;;7.50;2.17;;;17.40;87.50;;;;;;5046836;28;20039;-58
2022/10/01 00:14:16;;;;;;;9.65;2.22;;;17.70;84.90;;;;;;5047912;28;20040;-58
2022/10/01 00:16:43;;;;;;;6.47;1.58;;;17.90;88.90;;;;;;5042880;28;20036;-59
2022/10/01 00:19:13;;;;;;;4.68;1.20;;;18.30;86.90;;;;;;5045027;28;20025;-59
2022/10/01 00:21:41;;;;;;;8.80;1.35;;;18.90;84.50;;;;;;5046841;28;20036;-58
2022/10/01 00:24:10;;;;;;;10.27;1.83;;;19.20;77.10;;;;;;5050146;28;20017;-58
2022/10/01 00:26:38;;;;;;;6.50;1.20;;;19.50;75.70;;;;;;5045595;28;20024;-61
2022/10/01 00:29:13;;;;;;;15.60;2.08;;;19.80;72.30;;;;;;5046314;28;20115;-64
2022/10/01 00:31:41;;;;;;;6.85;0.90;;;19.80;72.30;;;;;;5057435;28;20451;-64
2022/10/01 00:34:10;;;;;;;9.68;1.80;;;19.60;72.80;;;;;;5048569;28;20033;-64
2022/10/01 00:36:37;;;;;;;4.88;1.20;;;19.50;73.30;;;;;;5046528;28;20071;-63
2022/10/01 00:39:05;;;;;;;6.88;1.20;;;19.00;73.90;;;;;;5044255;28;20112;-62
2022/10/01 00:41:34;;;;;;;3.35;1.20;;;18.70;73.10;;;;;;5046098;28;20385;-61
2022/10/01 00:44:32;;;;;;;5.55;1.65;;;18.40;78.10;;;;;;5047604;28;20017;-61
2022/10/01 00:47:22;;;;;;;5.70;1.00;;;17.90;81.70;;;;;;5047692;28;20354;-59
2022/10/01 00:49:54;;;;;;;6.90;1.48;;;17.60;85.40;;;;;;5043435;28;20134;-63
2022/10/01 00:52:27;;;;;;;4.75;1.17;;;17.50;84.70;;;;;;5048771;28;20095;-62
2022/10/01 00:55:11;;;;;;;5.18;0.95;;;17.30;86.80;;;;;;5046363;28;20029;-62
2022/10/01 00:57:38;;;;;;;8.98;1.58;;;17.10;88.70;;;;;;5047945;28;20043;-63
2022/10/01 01:00:09;;;;;;;6.88;1.02;;;17.10;89.40;;;;;;5048495;28;20025;-62
2022/10/01 01:02:37;;;;;;;7.95;1.13;;;17.10;88.00;;;;;;5048430;28;20485;-62
2022/10/01 01:05:05;;;;;;;6.13;1.45;;;17.40;90.00;;;;;;5044401;28;20025;-63
2022/10/01 01:07:34;;;;;;;4.22;1.20;;;17.70;89.10;;;;;;5043050;28;20029;-62
2022/10/01 01:10:04;;;;;;;3.85;1.13;;;18.10;86.80;;;;;;5045037;28;20040;-61
2022/10/01 01:12:40;;;;;;;11.70;4.07;;;18.20;83.60;;;;;;5045127;28;20028;-63
2022/10/01 01:15:19;;;;;;;10.18;1.55;;;18.20;87.90;;;;;;5044755;28;20021;-61
2022/10/01 01:17:46;;;;;;;6.85;1.50;;;18.30;85.60;;;;;;5047209;28;20393;-64
2022/10/01 01:20:23;;;;;;;8.60;1.67;;;18.30;85.80;;;;;;5046478;28;20075;-63
2022/10/01 01:23:14;;;;;;;10.50;2.00;;;17.90;87.90;;;;;;5045965;28;20029;-63
2022/10/01 01:26:05;;;;;;;7.22;1.67;;;17.50;90.00;;;;;;5043259;28;20124;-61
2022/10/01 01:28:38;;;;;;;4.65;1.42;;;17.20;90.20;;;;;;5041633;28;20028;-62
2022/10/01 01:31:13;;;;;;;10.27;2.55;;;17.00;90.40;;;;;;5044812;28;20020;-62
2022/10/01 01:33:44;;;;;;;7.28;2.17;;;16.80;91.00;;;;;;5042595;28;20057;-63
2022/10/01 01:36:17;;;;;;;7.00;2.75;;;16.60;90.50;;;;;;5045994;28;20013;-62
2022/10/01 01:38:55;;;;;;;5.20;1.58;;;16.60;91.10;;;;;;5041768;28;20116;-63
2022/10/01 01:41:25;;;;;;;7.93;1.48;;;16.80;88.00;;;;;;5044842;28;20061;-63
2022/10/01 01:43:59;;;;;;;2.97;0.98;;;17.00;89.80;;;;;;5042687;28;20104;-63
2022/10/01 01:46:32;;;;;;;5.93;1.85;;;17.30;84.90;;;;;;5045557;28;20029;-62
2022/10/01 01:49:03;;;;;;;6.20;1.50;;;17.60;79.80;;;;;;5048023;28;20075;-64
2022/10/01 01:51:53;;;;;;;6.70;1.30;;;18.00;80.90;;;;;;5046939;28;20025;-62
2022/10/01 01:54:20;;;;;;;5.03;1.25;;;18.30;83.50;;;;;;5043833;28;20044;-61
2022/10/01 01:56:49;;;;;;;7.03;1.52;;;18.60;81.60;;;;;;5045057;28;20054;-62
2022/10/01 01:59:18;;;;;;;5.32;1.58;;;19.00;81.20;;;;;;5045963;28;20170;-63
2022/10/01 02:01:48;;;;;;;4.22;1.13;;;19.50;87.80;;;;;;5049059;28;20033;-62
2022/10/01 02:04:24;;;;;;;8.68;1.55;;;19.60;80.20;;;;;;5043700;28;20029;-61
2022/10/01 02:07:20;;;;;;;5.97;2.63;;;19.60;83.90;;;;;;5048757;28;20025;-61
2022/10/01 02:10:54;;;;;;;5.13;0.90;;;19.40;83.10;;;;;;5045053;28;20028;-61
2022/10/01 02:13:46;;;;;;;5.43;1.33;;;19.00;82.30;;;;;;4972050;28;20139;-62
2022/10/01 02:16:41;;;;;;;5.53;0.98;;;18.60;81.10;;;;;;5044199;28;20119;-61
2022/10/01 02:19:40;;;;;;;5.18;1.23;;;18.10;86.70;;;;;;5048415;28;20021;-61
2022/10/01 02:22:19;;;;;;;4.68;1.42;;;17.70;87.50;;;;;;5046342;28;20052;-60
2022/10/01 02:24:58;;;;;;;4.53;0.88;;;17.30;86.10;;;;;;5044139;28;20033;-60
2022/10/01 02:27:40;;;;;;;9.35;2.47;;;17.10;84.50;;;;;;5041838;28;20021;-59
2022/10/01 02:30:09;;;;;;;7.20;1.67;;;17.00;85.60;;;;;;5050217;28;20024;-60
2022/10/01 02:32:42;;;;;;;4.75;1.13;;;17.10;84.30;;;;;;5050765;28;20040;-60
2022/10/01 02:35:13;;;;;;;9.13;2.15;;;17.10;86.40;;;;;;5049383;28;20021;-60
2022/10/01 02:37:43;;;;;;;3.80;0.88;;;17.20;83.80;;;;;;5053598;28;20082;-62
2022/10/01 02:40:16;;;;;;;3.78;1.27;;;17.10;83.80;;;;;;5047889;28;20021;-60
2022/10/01 02:42:51;;;;;;;5.55;1.55;;;17.20;86.80;;;;;;5046934;28;20033;-61
2022/10/01 02:45:22;;;;;;;6.30;1.30;;;17.30;90.30;;;;;;5051284;28;20438;-60
2022/10/01 02:48:06;;;;;;;2.38;0.80;;;17.40;87.30;;;;;;5047091;28;20025;-61
2022/10/01 02:50:49;;;;;;;3.83;0.70;;;17.50;73.20;;;;;;5049847;28;20068;-60
2022/10/01 02:53:36;;;;;;;4.43;0.80;;;17.70;73.30;;;;;;5062266;28;20485;-60
2022/10/01 02:56:05;;;;;;;6.25;1.00;;;17.90;73.50;;;;;;5046906;28;20052;-61
2022/10/01 02:58:32;;;;;;;3.95;1.13;;;18.00;72.60;;;;;;5049061;28;20025;-63
2022/10/01 03:01:00;;;;;;;3.13;0.60;;;18.30;69.50;;;;;;5054031;28;20032;-61
2022/10/01 03:03:27;;;;;;;2.53;0.50;;;18.30;69.60;;;;;;5053704;28;20517;-62
2022/10/01 03:05:54;;;;;;;7.20;0.70;;;18.40;67.60;;;;;;5050925;28;20033;-61
2022/10/01 03:08:22;;;;;;;6.90;1.02;;;18.50;68.20;;;;;;5051367;28;20078;-65
2022/10/01 03:10:49;;;;;;;9.50;2.40;;;18.50;69.50;;;;;;5051337;28;20029;-61
2022/10/01 03:13:18;;;;;;;5.50;1.30;;;18.30;70.90;;;;;;5058755;28;20033;-61
2022/10/01 03:15:48;;;;;;;7.03;1.50;;;18.20;74.00;;;;;;5049670;28;20385;-61
2022/10/01 03:18:16;;;;;;;5.00;1.08;;;18.00;72.30;;;;;;5050698;28;20044;-61
2022/10/01 03:20:43;;;;;;;4.03;0.70;;;17.90;72.90;;;;;;5052315;28;20021;-62
2022/10/01 03:23:10;;;;;;;5.30;1.70;;;17.70;73.30;;;;;;5044698;28;20069;-62
2022/10/01 03:25:38;;;;;;;9.70;1.77;;;17.60;74.70;;;;;;5048634;28;20032;-62
2022/10/01 03:28:05;;;;;;;2.75;0.57;;;17.60;73.30;;;;;;5049490;28;20028;-63
2022/10/01 03:30:33;;;;;;;4.22;1.55;;;17.50;73.80;;;;;;5049723;28;20021;-62
2022/10/01 03:33:00;;;;;;;5.38;1.20;;;17.50;76.30;;;;;;5049633;28;20044;-63
2022/10/01 03:35:27;;;;;;;5.38;0.93;;;17.40;75.40;;;;;;5048977;28;20020;-63
2022/10/01 03:37:54;;;;;;;6.03;0.85;;;17.50;74.40;;;;;;5049225;28;20029;-62
2022/10/01 03:40:24;;;;;;;5.38;0.75;;;17.60;74.50;;;;;;5046709;28;20013;-62
2022/10/01 03:42:51;;;;;;;5.50;1.23;;;18.00;73.90;;;;;;5046920;28;20429;-62
2022/10/01 03:45:18;;;;;;;3.70;1.77;;;18.60;70.90;;;;;;5045671;28;20021;-63
2022/10/01 03:47:51;;;;;;;8.13;1.58;;;19.20;65.80;;;;;;5058858;28;20371;-63
2022/10/01 03:50:20;;;;;;;6.70;1.05;;;19.00;64.30;;;;;;5049145;28;20220;-64
2022/10/01 03:52:50;;;;;;;5.85;0.75;;;19.10;65.80;;;;;;5058115;28;20127;-63
2022/10/01 03:55:18;;;;;;;5.97;1.13;;;18.80;67.70;;;;;;5051485;28;20098;-64
2022/10/01 03:57:45;;;;;;;3.97;0.80;;;18.60;67.90;;;;;;5051753;28;20028;-63
2022/10/01 04:00:12;;;;;;;6.57;1.02;;;18.10;67.30;;;;;;5051227;28;20515;-63
2022/10/01 04:02:40;;;;;;;2.63;0.70;;;17.70;73.70;;;;;;5047675;28;20091;-62
2022/10/01 04:05:07;;;;;;;8.30;0.95;;;17.50;74.30;;;;;;5048231;28;20017;-61
2022/10/01 04:07:35;;;;;;;5.38;0.93;;;17.20;75.60;;;;;;5047873;28;20117;-63
2022/10/01 04:10:02;;;;;;;3.80;0.80;;;17.20;75.40;;;;;;5047704;28;20017;-63
2022/10/01 04:12:29;;;;;;;5.53;0.82;;;17.10;76.20;;;;;;5051850;28;20028;-63
2022/10/01 04:14:56;;;;;;;6.45;0.98;;;17.00;76.10;;;;;;5047016;28;20124;-61
2022/10/01 04:17:24;;;;;;;7.15;0.77;;;17.00;75.20;;;;;;5047782;28;20477;-62
2022/10/01 04:19:51;;;;;;;4.70;0.95;;;17.10;75.90;;;;;;5051279;28;20085;-62
2022/10/01 04:22:18;;;;;;;6.38;0.90;;;17.10;75.10;;;;;;5051080;28;20029;-62
2022/10/01 04:24:45;;;;;;;5.90;0.80;;;17.20;74.30;;;;;;5047468;28;20077;-62
2022/10/01 04:27:12;;;;;;;2.75;0.57;;;17.20;72.60;;;;;;5045137;28;20059;-61
2022/10/01 04:29:40;;;;;;;4.95;0.75;;;17.30;73.20;;;;;;5046111;28;20029;-62
2022/10/01 04:32:07;;;;;;;5.90;0.82;;;17.40;70.80;;;;;;5042587;28;20017;-61
2022/10/01 04:34:52;;;;;;;4.68;0.90;;;17.40;68.60;;;;;;5046460;28;20078;-61
2022/10/01 04:37:20;;;;;;;3.50;0.90;;;17.40;69.10;;;;;;5048590;28;20105;-62
2022/10/01 04:39:48;;;;;;;3.72;0.98;;;17.60;69.20;;;;;;5044369;28;20025;-62
2022/10/01 04:42:15;;;;;;;7.60;1.38;;;17.70;69.40;;;;;;5045390;28;20035;-62
2022/10/01 04:44:42;;;;;;;7.18;1.75;;;17.80;70.60;;;;;;5047513;28;20362;-61
2022/10/01 04:47:10;;;;;;;4.72;0.85;;;17.70;74.20;;;;;;5046527;28;20025;-61
2022/10/01 04:49:37;;;;;;;4.80;1.00;;;17.50;76.50;;;;;;5046993;28;20045;-62
2022/10/01 04:52:05;;;;;;;5.57;1.00;;;17.30;75.60;;;;;;5045820;28;20061;-63
2022/10/01 04:54:32;;;;;;;6.07;0.90;;;17.00;79.80;;;;;;5045847;28;20678;-61
2022/10/01 04:56:59;;;;;;;5.25;1.08;;;16.90;80.50;;;;;;5042526;28;20029;-62
2022/10/01 04:59:27;;;;;;;3.28;1.40;;;17.00;82.80;;;;;;5042858;28;20031;-61
2022/10/01 05:01:54;;;;;;;5.10;1.10;;;16.90;83.00;;;;;;5042944;28;20032;-62
2022/10/01 05:04:21;;;;;;;3.40;0.80;;;17.00;82.70;;;;;;5042735;28;20063;-62
2022/10/01 05:06:48;;;;;;;8.02;1.60;;;17.10;82.50;;;;;;5046454;28;20021;-61
2022/10/01 05:09:16;;;;;;;6.50;1.25;;;16.90;82.40;;;;;;5048313;28;20032;-62
2022/10/01 05:11:43;;;;;;;6.38;0.80;;;16.80;84.50;;;;;;5049077;28;20071;-62
2022/10/01 05:14:12;;;;;;;3.35;0.65;;;16.70;88.50;;;;;;5042861;28;20037;-62
2022/10/01 05:16:39;;;;;;;4.30;0.85;;;16.60;87.70;;;;;;5047517;28;21291;-62
2022/10/01 05:19:07;;;;;;;3.03;0.80;;;16.50;87.70;;;;;;5045399;28;20017;-60
2022/10/01 05:21:36;;;;;;;8.93;1.42;;;16.30;87.90;;;;;;5056103;28;20093;-69
2022/10/01 05:24:04;;;;;;;4.20;0.55;;;16.20;88.50;;;;;;5052396;28;20458;-65
2022/10/01 05:26:32;;;;;;;7.15;0.75;;;16.20;90.00;;;;;;5040651;28;20036;-64
2022/10/01 05:28:59;;;;;;;9.30;1.10;;;16.20;90.60;;;;;;5027931;28;20053;-64
2022/10/01 05:31:26;;;;;;;3.40;0.95;;;16.10;90.20;;;;;;5044210;28;20478;-63
2022/10/01 05:33:54;;;;;;;8.00;1.10;;;16.00;91.90;;;;;;5060180;28;20068;-63
2022/10/01 05:36:21;;;;;;;13.20;1.42;;;15.80;92.20;;;;;;5059850;28;20078;-64
2022/10/01 05:38:51;;;;;;;7.57;1.52;;;15.60;91.20;;;;;;5069442;28;20036;-64
2022/10/01 05:41:19;;;;;;;32.05;4.88;;;15.50;92.10;;;;;;5057990;28;20069;-62
2022/10/01 05:43:48;;;;;;;12.35;2.17;;;15.50;91.20;;;;;;5056816;28;20054;-61
2022/10/01 05:46:15;;;;;;;11.73;2.00;;;15.60;90.90;;;;;;5046713;28;20033;-64
2022/10/01 05:48:43;;;;;;;7.47;1.17;;;15.80;90.70;;;;;;5052571;28;20052;-63
2022/10/01 05:51:12;;;;;;;12.02;2.55;;;15.90;90.10;;;;;;5052512;28;20493;-64
2022/10/01 05:53:39;;;;;;;3.95;1.02;;;16.00;89.50;;;;;;5052967;28;20036;-64
2022/10/01 05:56:07;;;;;;;4.10;1.13;;;16.20;89.40;;;;;;5069921;28;20153;-63
2022/10/01 05:58:36;;;;;;;7.30;1.50;;;16.30;87.80;;;;;;5063688;28;20689;-64
2022/10/01 06:01:03;;;;;;;5.57;1.38;;;16.50;84.90;;;;;;5061147;28;20024;-64
2022/10/01 06:03:31;;;;;;;6.45;1.33;;;16.70;83.40;;;;;;5072857;28;20016;-65
2022/10/01 06:05:59;;;;;;;8.20;1.10;;;16.80;82.70;;;;;;5057158;28;20040;-65
2022/10/01 06:08:27;;;;;;;4.07;0.90;;;16.90;82.10;;;;;;5045699;28;20057;-64
2022/10/01 06:11:00;;;;;;;4.47;1.02;;;17.00;81.30;;;;;;5047447;28;20036;-63
2022/10/01 06:13:28;;;;;;;3.17;0.70;;;17.10;81.40;;;;;;5052184;28;20511;-63
2022/10/01 06:15:55;;;;;;;4.97;1.25;;;17.00;78.90;;;;;;5044065;28;20167;-63
2022/10/01 06:18:22;;;;;;;3.28;0.80;;;16.80;76.30;;;;;;5069521;28;20036;-63
2022/10/01 06:20:50;;;;;;;3.13;0.80;;;16.70;77.30;;;;;;5048943;28;20032;-63
2022/10/01 06:23:17;;;;;;;3.97;0.90;;;16.60;76.80;;;;;;5063283;28;20028;-63
2022/10/01 06:25:44;;;;;;;2.55;0.60;;;16.50;77.90;;;;;;5068847;28;21545;-63
2022/10/01 06:28:13;;;;;;;2.53;0.40;;;16.40;76.60;;;;;;5052859;28;20469;-63
2022/10/01 06:30:41;;;;;;;2.60;1.10;;;16.40;75.00;;;;;;5052294;28;20072;-63
2022/10/01 06:33:11;;;;;;;5.35;0.60;;;16.30;76.10;;;;;;5051731;28;20036;-63
2022/10/01 06:35:45;;;;;;;8.68;1.80;;;16.30;77.90;;;;;;5050467;28;20509;-64
2022/10/01 06:38:13;;;;;;;5.20;0.80;;;16.30;77.40;;;;;;5051812;28;20425;-63
2022/10/01 06:40:41;;;;;;;4.68;1.00;;;16.20;78.00;;;;;;5050853;28;20432;-63
2022/10/01 06:43:09;;;;;;;3.42;0.65;;;16.10;76.80;;;;;;5051960;28;20470;-63
2022/10/01 06:45:41;;;;;;;6.93;1.23;;;16.10;78.40;;;;;;5051959;28;20108;-63
2022/10/01 06:48:13;;;;;;;6.72;1.88;;;15.90;79.70;;;;;;5049740;28;20029;-64
2022/10/01 06:50:44;;;;;;;3.70;0.93;;;15.90;81.20;;;;;;5051902;28;20086;-63
2022/10/01 06:53:14;;;;;;;1.83;0.50;;;15.80;82.80;;;;;;5051442;28;20037;-64
2022/10/01 06:55:41;;;;;;;5.57;0.77;;;15.80;82.90;;;;;;5051997;28;20022;-65
2022/10/01 06:58:14;;;;;;;4.97;0.63;;;15.70;82.20;;;;;;5051478;28;20044;-65
2022/10/01 07:00:42;;;;;;;6.53;1.25;;;15.70;84.50;;;;;;5055484;28;20021;-64
2022/10/01 07:03:17;;;;;;;6.70;1.77;;;15.70;86.70;;;;;;5050235;28;20029;-64
2022/10/01 07:05:45;;;;;;;7.78;1.52;;;15.40;90.70;;;;;;5051233;28;20049;-64
2022/10/01 07:08:13;;;;;;;7.47;1.50;;;15.00;93.20;;;;;;5051959;28;20029;-63
2022/10/01 07:10:42;;;;;;;6.88;2.78;;;14.80;93.30;;;;;;5051209;28;20068;-63
2022/10/01 07:13:11;;;;;;;4.47;1.60;;;14.50;93.50;;;;;;5051417;28;20029;-63
2022/10/01 07:15:39;;;;;;;3.97;1.42;;;14.30;94.20;;;;;;5051162;28;20024;-63
2022/10/01 07:18:08;;;;;;;3.72;1.67;;;14.20;94.50;;;;;;5049972;28;20025;-63
2022/10/01 07:20:38;;;;;;;7.40;1.00;;;14.00;94.60;;;;;;5055811;28;20044;-64
2022/10/01 07:23:09;;;;;;;4.65;0.90;;;14.00;95.00;;;;;;5051173;28;20036;-64
2022/10/01 07:25:37;;;;;;;5.65;0.63;;;14.00;94.30;;;;;;5049932;28;20074;-64
2022/10/01 07:28:14;;;;;;;4.60;0.80;;;14.00;94.70;;;;;;5051011;28;20090;-64
2022/10/01 07:30:46;;;;;;;3.53;0.60;;;14.00;93.80;;;;;;5051141;28;20020;-63
2022/10/01 07:33:17;;;;;;;2.08;0.52;;;13.90;93.80;;;;;;5063406;28;20048;-63
2022/10/01 07:35:46;;;;;;;8.10;1.13;;;13.90;93.00;;;;;;5051166;28;20028;-63
2022/10/01 07:38:13;;;;;;;3.25;1.25;;;13.90;93.30;;;;;;5050513;28;20029;-63
2022/10/01 07:40:41;;;;;;;7.43;1.73;;;13.90;93.60;;;;;;5051113;28;20057;-64
2022/10/01 07:43:08;;;;;;;7.85;0.90;;;13.80;93.70;;;;;;5052834;28;20028;-63
2022/10/01 07:45:36;;;;;;;3.03;0.52;;;13.80;93.80;;;;;;5050474;28;20079;-64
2022/10/01 07:48:04;;;;;;;6.75;0.88;;;13.80;93.40;;;;;;5050401;28;20031;-64
2022/10/01 07:50:32;;;;;;;5.15;0.88;;;13.80;93.40;;;;;;5049410;28;20052;-66
2022/10/01 07:52:59;;;;;;;4.43;0.70;;;13.80;94.20;;;;;;5050992;28;20442;-63
2022/10/01 07:55:29;;;;;;;6.20;1.70;;;13.80;94.90;;;;;;5051459;28;20104;-63
2022/10/01 07:58:01;;;;;;;6.30;2.05;;;13.80;95.40;;;;;;5049948;28;20024;-65
2022/10/01 08:00:30;;;;;;;8.52;0.90;;;13.70;95.60;;;;;;5050276;28;20074;-61
2022/10/01 08:02:57;;;;;;;7.07;1.02;;;13.60;95.80;;;;;;5048968;28;20111;-61
2022/10/01 08:05:33;;;;;;;5.38;1.02;;;13.60;95.70;;;;;;5050582;28;20037;-61
2022/10/01 08:08:05;;;;;;;5.13;1.60;;;13.50;95.90;;;;;;5050701;28;20033;-61
2022/10/01 08:10:34;;;;;;;13.70;3.58;;;13.40;96.20;;;;;;5049217;28;20025;-64
2022/10/01 08:13:13;;;;;;;11.20;4.25;;;13.30;96.50;;;;;;5049644;28;20025;-61
2022/10/01 08:15:52;;;;;;;10.07;4.15;;;13.30;96.70;;;;;;5048787;28;20024;-60
2022/10/01 08:18:20;;;;;;;19.70;3.20;;;13.20;97.20;;;;;;5044706;28;20035;-60
2022/10/01 08:20:48;;;;;;;7.55;1.63;;;13.10;97.30;;;;;;5045458;28;20025;-61
2022/10/01 08:23:16;;;;;;;7.57;1.38;;;13.00;97.40;;;;;;5045277;28;20409;-60
2022/10/01 08:25:46;;;;;;;3.70;1.15;;;12.90;97.80;;;;;;5045263;28;20025;-62
2022/10/01 08:28:15;;;;;;;5.68;1.05;;;12.80;98.00;;;;;;5047155;28;20078;-62
2022/10/01 08:30:42;;;;;;;3.75;0.80;;;12.60;98.20;;;;;;5061353;28;20021;-60
2022/10/01 08:33:13;;;;;;;4.43;1.70;;;12.50;98.70;;;;;;5063637;28;20033;-61
2022/10/01 08:35:42;;;;;;;7.65;1.98;;;12.40;98.70;;;;;;5049049;28;20032;-61
2022/10/01 08:38:10;;;;;;;3.78;1.52;;;12.20;98.90;;;;;;5047280;28;20075;-61
2022/10/01 08:40:49;;;;;;;4.88;1.27;;;12.10;99.60;;;;;;5045558;28;20494;-61
2022/10/01 08:43:37;;;;;;;10.77;1.52;;;12.00;99.90;;;;;;5046222;28;20513;-61
2022/10/01 08:46:17;;;;;;;8.32;1.27;;;11.90;99.90;;;;;;5047335;28;20029;-61
2022/10/01 08:48:57;;;;;;;5.53;1.13;;;11.90;99.90;;;;;;5046481;28;20559;-60
2022/10/01 08:51:34;;;;;;;3.95;0.88;;;11.80;99.90;;;;;;5045856;28;20025;-61
2022/10/01 08:54:01;;;;;;;7.40;1.33;;;11.80;99.90;;;;;;5047315;28;20406;-62
2022/10/01 08:56:36;;;;;;;5.90;1.30;;;11.80;99.90;;;;;;5046292;28;20051;-60
2022/10/01 08:59:16;;;;;;;5.57;1.10;;;11.70;99.90;;;;;;5027249;28;20148;-60
2022/10/01 09:01:44;;;;;;;9.98;1.67;;;11.70;99.90;;;;;;5043701;28;20503;-62
2022/10/01 09:04:11;;;;;;;6.90;1.00;;;11.60;99.90;;;;;;5046723;28;20125;-60
2022/10/01 09:06:38;;;;;;;7.93;1.25;;;11.60;99.90;;;;;;5054111;28;20493;-61
2022/10/01 09:09:36;;;;;;;3.30;0.93;;;11.60;99.90;;;;;;5046868;28;20045;-61
2022/10/01 09:12:22;;;;;;;6.53;0.90;;;11.50;99.90;;;;;;5046923;28;20108;-60
2022/10/01 09:15:05;;;;;;;6.45;1.08;;;11.60;99.90;;;;;;5046695;28;20083;-61
2022/10/01 09:17:59;;;;;;;10.82;1.45;;;11.60;99.90;;;;;;5047639;28;20044;-61
2022/10/01 09:20:33;;;;;;;5.00;1.02;;;11.60;99.90;;;;;;5047969;28;20029;-61
2022/10/01 09:23:11;;;;;;;8.07;2.20;;;11.50;99.90;;;;;;5045809;28;20025;-62
2022/10/01 09:25:39;;;;;;;9.02;1.35;;;11.50;99.90;;;;;;5046583;28;20029;-62
2022/10/01 09:28:23;;;;;;;5.55;1.67;;;11.40;99.90;;;;;;5046704;28;20389;-60
2022/10/01 09:31:03;;;;;;;8.17;1.70;;;11.30;99.90;;;;;;5057970;28;20033;-62
2022/10/01 09:33:37;;;;;;;4.40;1.60;;;11.20;99.90;;;;;;5058504;28;20293;-65
2022/10/01 09:36:11;;;;;;;3.78;1.42;;;11.10;99.90;;;;;;5046707;28;20025;-61
2022/10/01 09:38:44;;;;;;;8.98;1.65;;;11.10;99.90;;;;;;5046434;28;20063;-63
2022/10/01 09:41:13;;;;;;;8.70;1.42;;;11.00;99.90;;;;;;5046049;28;20145;-60
2022/10/01 09:43:43;;;;;;;9.23;2.30;;;10.90;99.90;;;;;;5060506;28;20085;-60
2022/10/01 09:46:16;;;;;;;6.70;1.83;;;10.70;99.90;;;;;;5044788;28;20071;-61
2022/10/01 09:49:23;;;;;;;6.60;1.60;;;10.60;99.90;;;;;;5044521;28;20051;-61
2022/10/01 09:51:56;;;;;;;5.82;1.23;;;10.50;99.90;;;;;;5045960;28;20586;-62
2022/10/01 09:54:42;;;;;;;7.15;1.80;;;10.40;99.90;;;;;;5050882;28;20068;-61
2022/10/01 09:57:22;;;;;;;10.48;3.60;;;10.30;99.90;;;;;;5045846;28;20087;-61
2022/10/01 10:00:01;;;;;;;8.85;4.45;;;10.20;99.90;;;;;;5046118;28;20037;-61
2022/10/01 10:02:52;;;;;;;6.95;2.95;;;10.20;99.90;;;;;;5046839;28;20021;-61
2022/10/01 10:05:21;;;;;;;8.68;2.40;;;10.30;99.90;;;;;;5046385;28;20025;-60
2022/10/01 10:08:10;;;;;;;9.18;2.38;;;10.30;99.90;;;;;;5046422;28;20021;-60
2022/10/01 10:10:39;;;;;;;6.43;2.30;;;10.40;99.90;;;;;;5041308;28;20486;-61
2022/10/01 10:13:10;;;;;;;8.32;3.08;;;10.50;99.90;;;;;;5024893;28;20054;-61
2022/10/01 10:15:58;;;;;;;5.57;2.33;;;10.60;99.90;;;;;;5038529;28;20104;-60
2022/10/01 10:18:29;;;;;;;8.23;2.25;;;10.60;99.90;;;;;;5049582;28;20044;-61
2022/10/01 10:21:01;;;;;;;16.05;2.55;;;10.70;99.90;;;;;;5049775;28;20025;-61
2022/10/01 10:23:28;;;;;;;6.38;2.30;;;10.70;99.90;;;;;;5050322;28;20436;-60
2022/10/01 10:25:56;;;;;;;6.40;2.20;;;10.80;99.90;;;;;;5053040;28;20025;-60
2022/10/01 10:28:24;;;;;;;6.63;2.10;;;10.70;99.90;;;;;;5057540;28;20549;-60
2022/10/01 10:30:54;;;;;;;9.82;1.90;;;10.70;99.90;;;;;;5052831;28;20046;-61
2022/10/01 10:33:25;;;;;;;4.88;1.70;;;10.70;99.90;;;;;;5049694;28;20033;-61
2022/10/01 10:36:05;;;;;;;5.32;1.42;;;10.70;99.90;;;;;;5049756;28;20075;-61
2022/10/01 10:38:35;;;;;;;4.93;1.98;;;10.70;99.90;;;;;;5049779;28;20044;-60
2022/10/01 10:41:03;;;;;;;5.68;1.63;;;10.70;99.90;;;;;;5055164;28;20049;-61
2022/10/01 10:43:36;;;;;;;6.05;2.70;;;10.70;99.90;;;;;;5049916;28;20545;-62
2022/10/01 10:46:05;;;;;;;8.02;2.42;;;10.60;99.90;;;;;;5049859;28;20478;-61
2022/10/01 10:48:48;;;;;;;6.38;1.45;;;10.60;99.90;;;;;;5048119;28;20052;-62
2022/10/01 10:51:15;;;;;;;4.88;1.40;;;10.60;99.90;;;;;;5047748;28;20060;-62
2022/10/01 10:53:45;;;;;;;5.05;2.08;;;10.50;99.90;;;;;;5061961;28;20063;-60
2022/10/01 10:56:21;;;;;;;2.25;1.30;;;10.50;99.90;;;;;;5068928;28;20025;-59
2022/10/01 10:58:50;;;;;;;9.02;2.58;;;10.50;99.90;;;;;;5069336;28;20515;-60
2022/10/01 11:01:29;;;;;;;7.65;1.58;;;10.40;99.90;;;;;;5056407;28;20124;-62
2022/10/01 11:03:59;;;;;;;6.93;1.10;;;10.40;99.90;;;;;;5049924;28;20028;-60
2022/10/01 11:06:27;;;;;;;6.32;2.25;;;10.40;99.90;;;;;;5067373;28;20020;-60
2022/10/01 11:09:09;;;;;;;6.05;2.60;;;10.40;99.90;;;;;;5047456;28;20063;-61
2022/10/01 11:11:58;;;;;;;8.65;3.20;;;10.40;99.90;;;;;;5049606;28;20059;-61
2022/10/01 11:14:53;;;;;;;6.93;2.40;;;10.50;99.90;;;;;;5048826;28;20410;-61
2022/10/01 11:17:48;;;;;;;6.97;1.85;;;10.50;99.90;;;;;;5048545;28;20032;-61
2022/10/01 11:20:41;;;;;;;4.57;1.65;;;10.50;99.90;;;;;;5049224;28;20041;-61
2022/10/01 11:23:44;;;;;;;5.20;2.05;;;10.50;99.90;;;;;;5061721;28;20548;-60
2022/10/01 11:26:29;;;;;;;4.82;1.40;;;10.50;99.90;;;;;;5020942;28;20037;-61
2022/10/01 11:29:12;;;;;;;12.77;3.25;;;10.50;99.90;;;;;;5041078;28;20072;-61
2022/10/01 11:32:03;;;;;;;11.63;6.53;;;10.40;99.90;;;;;;5047050;28;20036;-61
2022/10/01 11:34:39;;;;;;;14.77;10.55;;;10.40;99.90;;;;;;5049275;28;20047;-61
2022/10/01 11:37:40;;;;;;;12.07;7.45;;;10.40;99.90;;;;;;5048521;28;20029;-61
2022/10/01 11:40:25;;;;;;;9.43;4.68;;;10.40;99.90;;;;;;5028019;28;20504;-61
2022/10/01 11:43:01;;;;;;;7.30;2.13;;;10.30;99.90;;;;;;5061080;28;20025;-61
2022/10/01 11:45:38;;;;;;;6.30;3.03;;;10.40;99.90;;;;;;5066171;28;20435;-61
2022/10/01 11:48:34;;;;;;;5.57;2.17;;;10.40;99.90;;;;;;5068253;28;20028;-61
2022/10/01 11:51:12;;;;;;;9.02;2.35;;;10.40;99.90;;;;;;5054974;28;20566;-61
2022/10/01 11:53:52;;;;;;;9.18;2.10;;;10.40;99.90;;;;;;5045943;28;20036;-62
2022/10/01 11:59:24;;;;;;;6.97;2.03;;;10.50;99.90;;;;;;5040186;28;20043;-61
2022/10/01 12:01:56;;;;;;;5.22;1.80;;;10.50;99.90;;;;;;5056120;28;20021;-61
2022/10/01 12:04:31;;;;;;;8.18;1.85;;;10.60;99.90;;;;;;5067870;28;20068;-61
2022/10/01 12:07:37;;;;;;;4.95;1.88;;;10.60;99.90;;;;;;5062961;28;20031;-61
2022/10/01 12:10:39;;;;;;;5.50;2.05;;;10.60;99.90;;;;;;5043656;28;20041;-62
2022/10/01 12:13:33;;;;;;;5.13;1.48;;;10.70;99.90;;;;;;5044825;28;20045;-61
2022/10/01 12:16:01;;;;;;;2.33;1.08;;;10.70;99.90;;;;;;5048300;28;20056;-61
2022/10/01 12:19:01;;;;;;;5.05;1.30;;;10.70;99.90;;;;;;5049486;28;20017;-62
2022/10/01 12:21:50;;;;;;;3.63;1.52;;;10.70;99.90;;;;;;5044874;28;20025;-61
2022/10/01 12:24:32;;;;;;;3.90;0.95;;;10.70;99.90;;;;;;5046578;28;20072;-61
2022/10/01 12:27:06;;;;;;;6.30;1.27;;;10.60;99.90;;;;;;5046793;28;20405;-61
2022/10/01 12:29:34;;;;;;;8.25;1.35;;;10.60;99.90;;;;;;5047151;28;20044;-60
2022/10/01 12:32:20;;;;;;;5.75;3.20;;;10.50;99.90;;;;;;5049561;28;20541;-63
2022/10/01 12:35:12;;;;;;;4.53;1.50;;;10.50;99.90;;;;;;5051232;28;20051;-64
2022/10/01 12:37:59;;;;;;;7.03;3.47;;;10.60;99.90;;;;;;5045410;28;20594;-61
2022/10/01 12:40:57;;;;;;;9.68;5.97;;;10.60;99.90;;;;;;5055654;28;20037;-62
2022/10/01 12:43:34;;;;;;;5.35;4.28;;;10.60;99.90;;;;;;5041016;28;20059;-61
2022/10/01 12:46:37;;;;;;;5.90;3.00;;;10.70;99.90;;;;;;5043263;28;20167;-63
2022/10/01 12:49:26;;;;;;;7.40;2.20;;;10.70;99.90;;;;;;5037572;28;20136;-62
2022/10/01 12:52:01;;;;;;;4.38;1.88;;;10.70;99.90;;;;;;5041260;28;20107;-61
2022/10/01 12:54:41;;;;;;;3.92;1.73;;;10.60;99.90;;;;;;5042539;28;20048;-63
2022/10/01 12:57:11;;;;;;;9.00;1.58;;;10.60;99.90;;;;;;5040578;28;20036;-62
2022/10/01 12:59:47;;;;;;;5.28;1.23;;;10.50;99.90;;;;;;5044803;28;20029;-61
2022/10/01 13:02:45;;;;;;;4.18;1.60;;;10.50;99.90;;;;;;5044454;28;20031;-62
2022/10/01 13:05:15;;;;;;;5.13;1.67;;;10.50;99.90;;;;;;5043980;28;20021;-61
2022/10/01 13:07:57;;;;;;;5.22;1.35;;;10.50;99.90;;;;;;5040028;28;20486;-61
2022/10/01 13:10:47;;;;;;;8.73;1.35;;;10.50;99.90;;;;;;5036421;28;20108;-61
2022/10/01 13:13:20;;;;;;;2.05;1.00;;;10.60;99.90;;;;;;5040182;28;20036;-61
2022/10/01 13:15:54;;;;;;;6.97;1.38;;;10.60;99.90;;;;;;5043619;28;20043;-60
2022/10/01 13:18:49;;;;;;;6.75;1.77;;;10.60;99.90;;;;;;5039694;28;20029;-61
2022/10/01 13:21:44;;;;;;;7.18;1.20;;;10.70;99.90;;;;;;5038512;28;20026;-61
2022/10/01 13:24:37;;;;;;;;;;;10.70;99.90;;;;;;5041128;28;20033;-60